createdAt,value
2019-02-16T00:02:26.597Z,49.47
2019-02-16T00:04:59.111Z,49.62
2019-02-16T00:07:32.426Z,49.81
2019-02-16T00:10:06.537Z,50.14
2019-02-16T00:12:40.990Z,50.24
2019-02-16T00:15:16.671Z,50.18
2019-02-16T00:17:49.877Z,50.45
2019-02-16T00:20:23.860Z,50.22
2019-02-16T00:22:58.098Z,50.35
2019-02-16T00:25:32.252Z,50.51
2019-02-16T00:28:06.682Z,50.55
2019-02-16T00:30:39.537Z,50.60
2019-02-16T00:33:14.500Z,50.85
2019-02-16T00:35:47.131Z,50.78
2019-02-16T00:38:19.645Z,51.07
2019-02-16T00:40:54.799Z,51.28
2019-02-16T00:43:27.249Z,51.36
2019-02-16T00:46:00.303Z,51.52
2019-02-16T00:48:33.175Z,51.61
2019-02-16T00:51:13.257Z,51.66
2019-02-16T00:53:49.470Z,51.78
2019-02-16T00:56:23.315Z,51.86
2019-02-16T00:58:56.076Z,52.00
2019-02-16T01:01:28.660Z,52.20
2019-02-16T01:04:05.358Z,52.49
2019-02-16T01:06:38.603Z,52.86
2019-02-16T01:09:12.229Z,52.90
2019-02-16T01:11:47.343Z,52.84
2019-02-16T01:14:19.859Z,53.01
2019-02-16T01:16:52.472Z,53.26
2019-02-16T01:19:26.347Z,53.07
2019-02-16T01:21:58.859Z,53.46
2019-02-16T01:24:32.671Z,53.72
2019-02-16T01:27:08.247Z,53.70
2019-02-16T01:29:40.695Z,53.52
2019-02-16T01:32:13.299Z,53.48
2019-02-16T01:34:46.653Z,53.52
2019-02-16T01:37:19.462Z,53.39
2019-02-16T01:39:52.060Z,53.32
2019-02-16T01:42:29.189Z,53.22
2019-02-16T01:45:05.353Z,53.29
2019-02-16T01:47:38.632Z,53.45
2019-02-16T01:50:11.614Z,53.40
2019-02-16T01:52:45.110Z,53.17
2019-02-16T01:55:18.718Z,53.23
2019-02-16T01:57:53.471Z,53.11
2019-02-16T02:00:25.984Z,53.02
2019-02-16T02:03:00.061Z,53.12
2019-02-16T02:05:34.038Z,52.92
2019-02-16T02:08:08.044Z,52.81
2019-02-16T02:10:40.680Z,52.73
2019-02-16T02:13:13.599Z,53.03
2019-02-16T02:15:47.276Z,53.24
2019-02-16T02:18:19.969Z,53.46
2019-02-16T02:20:52.948Z,53.50
2019-02-16T02:23:26.072Z,53.42
2019-02-16T02:25:58.748Z,53.44
2019-02-16T02:28:33.804Z,53.42
2019-02-16T02:31:08.216Z,53.45
2019-02-16T02:33:40.751Z,53.34
2019-02-16T02:36:14.510Z,53.41
2019-02-16T02:38:47.175Z,53.32
2019-02-16T02:41:21.337Z,53.27
2019-02-16T02:43:54.327Z,53.22
2019-02-16T02:46:26.838Z,53.15
2019-02-16T02:48:59.440Z,53.11
2019-02-16T02:51:32.241Z,53.37
2019-02-16T02:54:04.878Z,53.40
2019-02-16T02:56:37.442Z,53.46
2019-02-16T02:59:10.414Z,53.68
2019-02-16T03:01:43.010Z,53.70
2019-02-16T03:04:15.600Z,53.90
2019-02-16T03:06:51.384Z,53.81
2019-02-16T03:09:23.968Z,53.73
2019-02-16T03:11:57.610Z,53.92
2019-02-16T03:14:31.650Z,54.04
2019-02-16T03:17:04.194Z,54.09
2019-02-16T03:19:36.719Z,53.98
2019-02-16T03:22:10.259Z,54.14
2019-02-16T03:24:43.883Z,53.98
2019-02-16T03:28:15.845Z,54.17
2019-02-16T03:31:25.215Z,53.97
2019-02-16T03:34:09.340Z,53.74
2019-02-16T03:37:07.265Z,53.77
2019-02-16T03:39:45.435Z,53.64
2019-02-16T03:42:18.943Z,53.79
2019-02-16T03:44:51.489Z,53.99
2019-02-16T03:47:24.447Z,54.17
2019-02-16T03:49:57.073Z,54.48
2019-02-16T03:52:29.809Z,54.61
2019-02-16T03:55:02.677Z,54.96
2019-02-16T03:57:35.174Z,54.92
2019-02-16T04:00:08.636Z,55.38
2019-02-16T04:02:41.797Z,55.95
2019-02-16T04:05:14.618Z,55.91
2019-02-16T04:07:47.142Z,56.03
2019-02-16T04:10:20.995Z,56.93
2019-02-16T04:12:53.475Z,57.61
2019-02-16T04:15:30.514Z,58.07
2019-02-16T04:18:04.079Z,58.36
2019-02-16T04:20:37.298Z,58.71
2019-02-16T04:23:10.307Z,59.20
2019-02-16T04:25:42.794Z,59.85
2019-02-16T04:28:15.337Z,60.45
2019-02-16T04:30:48.264Z,61.09
2019-02-16T04:33:20.923Z,61.19
2019-02-16T04:35:53.780Z,61.72
2019-02-16T04:38:28.155Z,61.65
2019-02-16T04:41:00.749Z,62.00
2019-02-16T04:43:33.274Z,62.31
2019-02-16T04:46:06.045Z,62.85
2019-02-16T04:48:38.595Z,62.73
2019-02-16T04:51:11.552Z,62.96
2019-02-16T04:53:44.498Z,62.86
2019-02-16T04:56:16.939Z,62.71
2019-02-16T04:58:49.611Z,62.55
2019-02-16T05:01:22.803Z,62.57
2019-02-16T05:03:55.290Z,62.83
2019-02-16T05:06:27.972Z,62.63
2019-02-16T05:09:03.361Z,63.00
2019-02-16T05:11:35.701Z,62.77
2019-02-16T05:14:08.207Z,62.78
2019-02-16T05:16:40.997Z,62.72
2019-02-16T05:19:14.184Z,62.64
2019-02-16T05:21:46.761Z,62.41
2019-02-16T05:24:19.942Z,62.13
2019-02-16T05:26:53.584Z,61.41
2019-02-16T05:29:26.130Z,61.22
2019-02-16T05:31:58.890Z,60.96
2019-02-16T05:34:32.069Z,60.66
2019-02-16T05:37:04.665Z,60.37
2019-02-16T05:39:39.306Z,60.17
2019-02-16T05:42:12.091Z,59.98
2019-02-16T05:44:44.651Z,59.73
2019-02-16T05:47:19.278Z,59.21
2019-02-16T05:49:59.854Z,58.84
2019-02-16T05:52:33.659Z,58.72
2019-02-16T05:55:07.214Z,58.72
2019-02-16T05:57:39.577Z,58.61
2019-02-16T06:00:17.780Z,58.66
2019-02-16T06:02:50.263Z,58.56
2019-02-16T06:05:22.890Z,58.54
2019-02-16T06:07:55.426Z,58.65
2019-02-16T06:10:28.257Z,58.76
2019-02-16T06:13:00.786Z,59.03
2019-02-16T06:15:33.362Z,58.93
2019-02-16T06:18:06.456Z,59.04
2019-02-16T06:20:39.217Z,58.92
2019-02-16T06:23:11.730Z,58.94
2019-02-16T06:25:48.515Z,58.75
2019-02-16T06:28:21.955Z,58.71
2019-02-16T06:30:54.569Z,58.79
2019-02-16T06:33:27.417Z,58.81
2019-02-16T06:36:13.861Z,58.79
2019-02-16T06:38:46.681Z,58.93
2019-02-16T06:41:19.707Z,59.03
2019-02-16T06:43:54.115Z,59.06
2019-02-16T06:46:26.673Z,59.14
2019-02-16T06:49:06.827Z,59.33
2019-02-16T06:51:42.021Z,59.66
2019-02-16T06:54:15.237Z,60.06
2019-02-16T06:56:54.307Z,59.94
2019-02-16T06:59:31.460Z,60.02
2019-02-16T07:02:04.518Z,60.12
2019-02-16T07:04:39.292Z,60.16
2019-02-16T07:07:11.833Z,59.98
2019-02-16T07:09:44.539Z,60.12
2019-02-16T07:12:18.671Z,60.19
2019-02-16T07:14:51.703Z,60.51
2019-02-16T07:17:48.815Z,60.41
2019-02-16T07:20:33.248Z,60.33
2019-02-16T07:23:06.581Z,60.30
2019-02-16T07:25:39.465Z,60.17
2019-02-16T07:28:12.991Z,60.15
2019-02-16T07:30:46.221Z,60.15
2019-02-16T07:33:20.084Z,59.89
2019-02-16T07:35:52.524Z,59.64
2019-02-16T07:38:25.998Z,59.48
2019-02-16T07:41:00.254Z,59.03
2019-02-16T07:43:40.827Z,58.63
2019-02-16T07:46:24.235Z,58.17
2019-02-16T07:49:06.584Z,57.74
2019-02-16T07:51:45.373Z,57.36
2019-02-16T07:54:29.392Z,57.37
2019-02-16T07:57:21.739Z,57.38
2019-02-16T08:00:15.314Z,57.49
2019-02-16T08:03:01.686Z,57.79
2019-02-16T08:05:59.175Z,58.04
2019-02-16T08:08:55.724Z,58.46
2019-02-16T08:11:50.009Z,58.46
2019-02-16T08:14:31.530Z,58.44
2019-02-16T08:17:23.619Z,57.83
2019-02-16T08:20:05.144Z,57.10
2019-02-16T08:22:46.394Z,56.41
2019-02-16T08:25:30.780Z,56.08
2019-02-16T08:28:14.271Z,55.79
2019-02-16T08:30:53.854Z,55.18
2019-02-16T08:33:34.072Z,54.77
2019-02-16T08:36:18.593Z,54.20
2019-02-16T08:39:13.478Z,53.50
2019-02-16T08:42:04.555Z,52.62
2019-02-16T08:44:59.131Z,51.88
2019-02-16T08:47:46.905Z,51.38
2019-02-16T08:50:29.602Z,50.53
2019-02-16T08:53:09.117Z,50.07
2019-02-16T08:55:48.296Z,49.49
2019-02-16T08:58:44.500Z,49.14
2019-02-16T09:01:23.795Z,48.78
2019-02-16T09:04:18.121Z,48.54
2019-02-16T09:07:21.505Z,48.13
2019-02-16T09:10:14.886Z,47.72
2019-02-16T09:13:19.616Z,47.65
2019-02-16T09:16:13.798Z,47.38
2019-02-16T09:19:05.723Z,46.75
2019-02-16T09:21:48.647Z,46.41
2019-02-16T09:24:45.506Z,45.51
2019-02-16T09:27:39.923Z,45.14
2019-02-16T09:31:06.114Z,44.97
2019-02-16T09:34:14.371Z,44.79
2019-02-16T09:36:53.343Z,44.71
2019-02-16T09:39:44.981Z,44.58
2019-02-16T09:42:29.079Z,42.51
2019-02-16T09:45:26.090Z,39.34
2019-02-16T09:48:18.570Z,38.46
2019-02-16T09:51:01.203Z,37.53
2019-02-16T09:53:56.356Z,36.80
2019-02-16T09:56:48.901Z,36.77
2019-02-16T09:59:38.687Z,35.22
2019-02-16T10:02:24.067Z,35.85
2019-02-16T10:05:08.326Z,36.17
2019-02-16T10:07:52.361Z,36.35
2019-02-16T10:10:31.461Z,36.20
2019-02-16T10:13:17.798Z,36.46
2019-02-16T10:16:12.493Z,36.52
2019-02-16T10:19:02.062Z,35.87
2019-02-16T10:21:54.507Z,36.12
2019-02-16T10:24:43.751Z,36.06
2019-02-16T10:27:21.975Z,35.71
2019-02-16T10:30:14.838Z,34.59
2019-02-16T10:33:02.418Z,34.06
2019-02-16T10:35:43.044Z,34.59
2019-02-16T10:38:41.928Z,34.56
2019-02-16T10:41:30.716Z,34.76
2019-02-16T10:44:13.475Z,34.29
2019-02-16T10:46:59.588Z,34.65
2019-02-16T10:49:55.689Z,35.00
2019-02-16T10:52:47.775Z,34.42
2019-02-16T10:55:41.467Z,34.69
2019-02-16T10:58:55.203Z,34.64
2019-02-16T11:02:02.234Z,34.36
2019-02-16T11:05:01.419Z,34.45
2019-02-16T11:07:41.699Z,33.92
2019-02-16T11:10:22.528Z,34.16
2019-02-16T11:13:05.700Z,33.75
2019-02-16T11:15:46.130Z,32.95
2019-02-16T11:18:41.282Z,32.61
2019-02-16T11:21:25.578Z,31.82
2019-02-16T11:24:07.163Z,31.38
2019-02-16T11:26:56.746Z,31.47
2019-02-16T11:29:45.873Z,31.75
2019-02-16T11:32:39.138Z,32.06
2019-02-16T11:35:24.989Z,32.12
2019-02-16T11:38:03.515Z,32.22
2019-02-16T11:40:43.156Z,31.56
2019-02-16T11:43:24.270Z,31.83
2019-02-16T11:46:17.694Z,31.99
2019-02-16T11:49:13.754Z,31.55
2019-02-16T11:52:10.911Z,31.72
2019-02-16T11:54:53.975Z,31.36
2019-02-16T11:57:40.440Z,31.86
2019-02-16T12:00:26.856Z,32.22
2019-02-16T12:03:09.289Z,32.04
2019-02-16T12:05:48.844Z,31.60
2019-02-16T12:08:35.332Z,31.58
2019-02-16T12:11:23.334Z,31.62
2019-02-16T12:14:11.448Z,31.89
2019-02-16T12:16:56.365Z,31.05
2019-02-16T12:19:55.142Z,31.13
2019-02-16T12:22:49.368Z,31.37
2019-02-16T12:25:33.453Z,31.30
2019-02-16T12:28:12.241Z,30.98
2019-02-16T12:30:57.707Z,31.04
2019-02-16T12:33:36.507Z,31.37
2019-02-16T12:36:33.350Z,31.40
2019-02-16T12:39:24.017Z,31.98
2019-02-16T12:42:05.542Z,32.17
2019-02-16T12:44:51.070Z,31.76
2019-02-16T12:47:39.900Z,32.00
2019-02-16T12:50:20.344Z,32.39
2019-02-16T12:53:05.792Z,32.59
2019-02-16T12:55:47.309Z,31.61
2019-02-16T12:58:48.638Z,32.12
2019-02-16T13:01:44.300Z,31.94
2019-02-16T13:04:44.536Z,32.17
2019-02-16T13:10:52.365Z,31.71
2019-02-16T13:13:33.039Z,31.20
2019-02-16T13:16:29.748Z,31.40
2019-02-16T13:19:33.995Z,31.16
2019-02-16T13:22:14.017Z,31.11
2019-02-16T13:25:07.087Z,31.81
2019-02-16T13:28:00.684Z,31.75
2019-02-16T13:30:44.802Z,31.49
2019-02-16T13:33:38.809Z,31.65
2019-02-16T13:36:28.676Z,31.11
2019-02-16T13:39:16.195Z,31.53
2019-02-16T13:42:11.294Z,31.51
2019-02-16T13:44:56.708Z,31.73
2019-02-16T13:47:45.324Z,32.41
2019-02-16T13:50:25.159Z,32.47
2019-02-16T13:53:03.839Z,32.17
2019-02-16T13:55:46.232Z,32.24
2019-02-16T13:58:33.116Z,32.10
2019-02-16T14:01:21.075Z,31.99
2019-02-16T14:04:19.239Z,32.05
2019-02-16T14:07:17.684Z,31.74
2019-02-16T14:10:07.394Z,31.67
2019-02-16T14:12:52.333Z,31.65
2019-02-16T14:15:45.729Z,32.28
2019-02-16T14:18:22.294Z,32.34
2019-02-16T14:20:55.808Z,32.33
2019-02-16T14:23:29.766Z,32.77
2019-02-16T14:26:04.341Z,33.05
2019-02-16T14:28:37.045Z,33.76
2019-02-16T14:31:11.148Z,33.66
2019-02-16T14:33:44.483Z,33.34
2019-02-16T14:36:18.158Z,33.53
2019-02-16T14:39:01.459Z,33.72
2019-02-16T14:41:35.453Z,33.37
2019-02-16T14:44:09.150Z,33.64
2019-02-16T14:46:43.399Z,33.19
2019-02-16T14:49:17.615Z,33.35
2019-02-16T14:51:52.584Z,33.48
2019-02-16T14:54:30.237Z,33.36
2019-02-16T14:57:04.261Z,33.71
2019-02-16T14:59:37.367Z,33.71
2019-02-16T15:02:12.032Z,33.63
2019-02-16T15:04:45.253Z,33.59
2019-02-16T15:07:19.388Z,33.29
2019-02-16T15:09:55.544Z,33.29
2019-02-16T15:12:28.346Z,33.72
2019-02-16T15:15:10.107Z,33.89
2019-02-16T15:17:46.591Z,33.74
2019-02-16T15:20:23.317Z,33.84
2019-02-16T15:22:58.632Z,33.87
2019-02-16T15:25:34.044Z,33.83
2019-02-16T15:28:07.704Z,33.76
2019-02-16T15:30:41.755Z,33.95
2019-02-16T15:33:14.802Z,33.77
2019-02-16T15:35:47.356Z,33.92
2019-02-16T15:38:20.072Z,33.98
2019-02-16T15:40:53.719Z,34.14
2019-02-16T15:43:27.192Z,34.38
2019-02-16T15:46:08.249Z,34.50
2019-02-16T15:48:41.245Z,34.63
2019-02-16T15:51:15.263Z,34.70
2019-02-16T15:53:50.398Z,34.98
2019-02-16T15:56:23.778Z,35.42
2019-02-16T15:58:59.657Z,35.70
2019-02-16T16:01:37.284Z,35.91
2019-02-16T16:04:12.370Z,36.40
2019-02-16T16:06:46.599Z,36.72
2019-02-16T16:09:34.587Z,36.98
2019-02-16T16:12:20.655Z,37.31
2019-02-16T16:15:03.542Z,37.79
2019-02-16T16:17:47.426Z,38.24
2019-02-16T16:20:25.717Z,38.45
2019-02-16T16:23:10.794Z,38.92
2019-02-16T16:25:52.396Z,39.40
2019-02-16T16:28:35.488Z,39.75
2019-02-16T16:31:13.484Z,40.47
2019-02-16T16:33:51.715Z,40.80
2019-02-16T16:36:51.806Z,41.16
2019-02-16T16:39:42.475Z,41.98
2019-02-16T16:42:41.963Z,42.05
2019-02-16T16:45:24.238Z,42.53
2019-02-16T16:48:03.159Z,42.87
2019-02-16T16:50:55.961Z,43.33
2019-02-16T16:53:46.902Z,43.97
2019-02-16T16:56:28.883Z,44.33
2019-02-16T16:59:07.862Z,44.60
2019-02-16T17:01:54.392Z,45.06
2019-02-16T17:04:36.239Z,46.97
2019-02-16T17:07:14.748Z,47.20
2019-02-16T17:09:58.448Z,47.35
2019-02-16T17:12:38.071Z,48.02
2019-02-16T17:15:31.038Z,48.48
2019-02-16T17:18:19.669Z,48.71
2019-02-16T17:21:09.252Z,49.96
2019-02-16T17:23:59.355Z,50.65
2019-02-16T17:26:45.595Z,51.75
2019-02-16T17:29:24.126Z,52.41
2019-02-16T17:32:19.164Z,54.14
2019-02-16T17:34:58.882Z,53.94
2019-02-16T17:37:46.539Z,53.78
2019-02-16T17:40:27.610Z,54.12
2019-02-16T17:43:07.272Z,54.58
2019-02-16T17:45:56.770Z,54.96
2019-02-16T17:48:38.972Z,55.23
2019-02-16T17:51:34.670Z,55.47
2019-02-16T17:54:28.770Z,55.78
2019-02-16T17:57:22.343Z,56.75
2019-02-16T18:00:05.635Z,58.83
2019-02-16T18:02:50.301Z,58.57
2019-02-16T18:05:47.457Z,58.70
2019-02-16T18:08:44.739Z,58.96
2019-02-16T18:11:46.471Z,59.09
2019-02-16T18:14:45.057Z,61.72
2019-02-16T18:17:27.582Z,61.56
2019-02-16T18:20:12.745Z,62.08
2019-02-16T18:23:00.475Z,62.81
2019-02-16T18:25:41.878Z,63.02
2019-02-16T18:28:21.115Z,63.24
2019-02-16T18:31:00.543Z,63.31
2019-02-16T18:33:52.567Z,65.09
2019-02-16T18:36:42.151Z,66.22
2019-02-16T18:39:34.634Z,66.18
2019-02-16T18:42:31.754Z,66.14
2019-02-16T18:45:29.127Z,67.42
2019-02-16T18:48:21.878Z,68.45
2019-02-16T18:51:01.915Z,68.37
2019-02-16T18:53:47.307Z,69.51
2019-02-16T18:56:39.824Z,70.21
2019-02-16T18:59:30.440Z,70.66
2019-02-16T19:02:15.372Z,70.81
2019-02-16T19:05:03.691Z,71.49
2019-02-16T19:07:49.119Z,71.83
2019-02-16T19:10:46.301Z,71.65
2019-02-16T19:13:39.127Z,71.87
2019-02-16T19:16:39.355Z,72.71
2019-02-16T19:20:05.115Z,73.77
2019-02-16T19:23:36.423Z,73.92
2019-02-16T19:26:55.355Z,75.42
2019-02-16T19:30:09.784Z,75.11
2019-02-16T19:33:19.705Z,74.93
2019-02-16T19:36:22.381Z,75.20
2019-02-16T19:39:29.232Z,75.60
2019-02-16T19:43:04.723Z,75.60
2019-02-16T19:45:54.542Z,75.91
2019-02-16T19:48:49.441Z,75.79
2019-02-16T19:51:29.545Z,75.93
2019-02-16T19:54:24.927Z,76.11
2019-02-16T19:57:06.218Z,75.93
2019-02-16T20:00:02.000Z,76.89
2019-02-16T20:03:18.071Z,77.48
2019-02-16T20:06:06.844Z,77.53
2019-02-16T20:09:03.415Z,77.84
2019-02-16T20:11:58.452Z,78.81
2019-02-16T20:14:43.715Z,79.69
2019-02-16T20:17:26.938Z,81.06
2019-02-16T20:20:20.144Z,81.61
2019-02-16T20:23:14.637Z,82.26
2019-02-16T20:26:19.584Z,82.01
2019-02-16T20:29:01.570Z,81.47
2019-02-16T20:31:44.426Z,82.00
2019-02-16T20:34:39.494Z,82.26
2019-02-16T20:37:39.266Z,82.08
2019-02-16T20:40:18.862Z,82.44
2019-02-16T20:42:57.434Z,82.47
2019-02-16T20:45:39.493Z,82.27
2019-02-16T20:48:25.510Z,82.05
2019-02-16T20:51:04.754Z,82.57
2019-02-16T20:53:45.504Z,82.60
2019-02-16T20:56:27.152Z,82.66
2019-02-16T20:59:25.530Z,82.77
2019-02-16T21:02:26.571Z,83.73
2019-02-16T21:05:04.719Z,83.75
2019-02-16T21:07:47.296Z,83.48
2019-02-16T21:10:32.439Z,83.48
2019-02-16T21:13:14.823Z,83.53
2019-02-16T21:16:01.827Z,83.54
2019-02-16T21:18:45.847Z,83.59
2019-02-16T21:21:34.707Z,83.74
2019-02-16T21:24:32.159Z,84.32
2019-02-16T21:27:10.506Z,84.98
2019-02-16T21:30:05.378Z,86.04
2019-02-16T21:32:54.534Z,86.30
2019-02-16T21:35:53.227Z,87.08
2019-02-16T21:38:47.442Z,87.06
2019-02-16T21:41:28.187Z,87.57
2019-02-16T21:44:20.368Z,88.00
2019-02-16T21:47:21.241Z,88.38
2019-02-16T21:50:02.708Z,88.13
2019-02-16T21:53:09.832Z,87.93
2019-02-16T21:55:58.809Z,88.26
2019-02-16T21:58:38.336Z,88.96
2019-02-16T22:01:20.747Z,88.62
2019-02-16T22:04:19.392Z,88.10
2019-02-16T22:07:15.458Z,88.28
2019-02-16T22:10:15.394Z,88.56
2019-02-16T22:13:02.517Z,88.83
2019-02-16T22:15:37.058Z,89.05
2019-02-16T22:18:14.508Z,88.75
2019-02-16T22:20:49.519Z,88.66
2019-02-16T22:23:22.148Z,89.09
2019-02-16T22:25:57.210Z,89.26
2019-02-16T22:28:32.500Z,89.24
2019-02-16T22:31:09.450Z,88.97
2019-02-16T22:34:00.118Z,89.04
2019-02-16T22:36:33.812Z,89.43
2019-02-16T22:39:17.281Z,89.64
2019-02-16T22:41:55.603Z,89.87
2019-02-16T22:44:31.510Z,90.48
2019-02-16T22:47:06.510Z,90.90
2019-02-16T22:49:39.769Z,91.17
2019-02-16T22:52:14.923Z,91.16
2019-02-16T22:54:47.813Z,90.76
2019-02-16T22:57:21.206Z,90.83
2019-02-16T22:59:53.964Z,90.95
2019-02-16T23:02:29.131Z,91.11
2019-02-16T23:05:01.721Z,91.08
2019-02-16T23:07:34.372Z,90.64
2019-02-16T23:10:10.511Z,90.95
2019-02-16T23:12:43.631Z,90.91
2019-02-16T23:15:21.620Z,90.45
2019-02-16T23:17:54.302Z,90.33
2019-02-16T23:20:28.495Z,90.42
2019-02-16T23:23:01.020Z,90.59
2019-02-16T23:25:34.704Z,90.62
2019-02-16T23:28:08.703Z,90.65
2019-02-16T23:30:41.327Z,90.51
2019-02-16T23:33:14.468Z,90.61
2019-02-16T23:35:48.920Z,90.72
2019-02-16T23:38:22.294Z,90.99
2019-02-16T23:40:56.050Z,91.34
2019-02-16T23:43:30.549Z,91.81
2019-02-16T23:46:03.808Z,92.11
2019-02-16T23:48:40.839Z,92.21
2019-02-16T23:51:14.705Z,92.33
2019-02-16T23:53:47.359Z,92.45
2019-02-16T23:56:20.661Z,92.60
2019-02-16T23:58:56.504Z,92.55
